Time;durP1;ratioP1;P1;durP2;ratioP2;P2;SDS_P1;SDS_P2;PMS_P1;PMS_P2;Temp;Humidity;BMP_temperature;BMP_pressure;BME280_temperature;BME280_humidity;BME280_pressure;Samples;Min_cycle;Max_cycle;Signal;HPM_P1;HPM_P2
2022/03/07 00:00:00;;;;;;;132.93;62.67;;;;;;;;;;5040502;28;20227;-92
2022/03/07 00:02:28;;;;;;;131.55;60.95;;;;;;;;;;5040940;28;20676;-92
2022/03/07 00:04:55;;;;;;;130.30;61.88;;;;;;;;;;5041946;28;20731;-92
2022/03/07 00:07:21;;;;;;;134.82;62.05;;;;;;;;;;5041940;28;20266;-92
2022/03/07 00:09:48;;;;;;;128.57;61.30;;;;;;;;;;5041001;28;20305;-92
2022/03/07 00:12:14;;;;;;;137.50;62.78;;;;;;;;;;5041799;28;20262;-92
2022/03/07 00:14:40;;;;;;;127.50;58.65;;;;;;;;;;5043266;28;20201;-93
2022/03/07 00:17:07;;;;;;;123.75;59.40;;;;;;;;;;5042832;28;20255;-92
2022/03/07 00:19:35;;;;;;;124.32;58.85;;;;;;;;;;5041771;28;20229;-92
2022/03/07 00:22:01;;;;;;;128.30;60.03;;;;;;;;;;5041724;28;20197;-93
2022/03/07 00:24:28;;;;;;;126.70;58.22;;;;;;;;;;5042841;28;20251;-93
2022/03/07 00:26:54;;;;;;;131.30;59.75;;;;;;;;;;5043005;28;20200;-93
2022/03/07 00:29:21;;;;;;;130.88;60.85;;;;;;;;;;5042208;28;20274;-92
2022/03/07 00:31:48;;;;;;;124.60;58.65;;;;;;;;;;5042195;28;20220;-92
2022/03/07 00:34:15;;;;;;;127.38;59.88;;;;;;;;;;5042701;28;20677;-92
2022/03/07 00:36:43;;;;;;;134.88;62.50;;;;;;;;;;5042984;28;20200;-92
2022/03/07 00:39:09;;;;;;;132.20;61.58;;;;;;;;;;5042697;28;20249;-92
2022/03/07 00:41:36;;;;;;;138.98;65.03;;;;;;;;;;5042350;28;20197;-92
2022/03/07 00:44:02;;;;;;;133.82;63.33;;;;;;;;;;5043149;28;20197;-92
2022/03/07 00:46:29;;;;;;;131.93;63.20;;;;;;;;;;5045511;28;20223;-92
2022/03/07 00:48:55;;;;;;;138.52;61.50;;;;;;;;;;5045445;28;20201;-92
2022/03/07 00:51:24;;;;;;;135.05;61.00;;;;;;;;;;5045940;28;20201;-92
2022/03/07 00:53:52;;;;;;;139.75;64.20;;;;;;;;;;5045603;28;20204;-92
2022/03/07 00:56:18;;;;;;;130.88;59.83;;;;;;;;;;5045197;28;20267;-92
2022/03/07 00:58:45;;;;;;;126.95;60.35;;;;;;;;;;5046201;28;20221;-91
2022/03/07 01:01:11;;;;;;;132.45;63.55;;;;;;;;;;5045387;28;20225;-92
2022/03/07 01:03:38;;;;;;;135.32;62.30;;;;;;;;;;5044770;28;20300;-92
2022/03/07 01:06:04;;;;;;;138.07;61.63;;;;;;;;;;5044055;28;20209;-92
2022/03/07 01:08:31;;;;;;;132.07;61.50;;;;;;;;;;5044052;28;20232;-92
2022/03/07 01:10:59;;;;;;;123.22;59.95;;;;;;;;;;5044572;28;20201;-92
2022/03/07 01:13:25;;;;;;;130.65;60.70;;;;;;;;;;5045355;28;20204;-92
2022/03/07 01:15:52;;;;;;;136.07;61.00;;;;;;;;;;5046100;28;20197;-92
2022/03/07 01:18:18;;;;;;;144.45;59.90;;;;;;;;;;5045158;28;20247;-92
2022/03/07 01:20:45;;;;;;;136.90;63.25;;;;;;;;;;5042025;28;20244;-92
2022/03/07 01:23:11;;;;;;;139.35;64.80;;;;;;;;;;5038889;28;20610;-92
2022/03/07 01:25:38;;;;;;;130.10;60.80;;;;;;;;;;5045020;28;20251;-92
2022/03/07 01:28:06;;;;;;;132.52;63.13;;;;;;;;;;5041818;28;20200;-92
2022/03/07 01:30:32;;;;;;;133.20;63.53;;;;;;;;;;5040464;28;20197;-92
2022/03/07 01:32:59;;;;;;;131.55;63.63;;;;;;;;;;5040270;28;20196;-92
2022/03/07 01:35:25;;;;;;;138.30;65.40;;;;;;;;;;5040763;28;20262;-92
2022/03/07 01:37:52;;;;;;;129.55;60.47;;;;;;;;;;5041058;28;20660;-92
2022/03/07 01:40:18;;;;;;;139.98;64.43;;;;;;;;;;5041421;28;20676;-92
2022/03/07 01:42:45;;;;;;;137.85;62.85;;;;;;;;;;5043086;28;20270;-92
2022/03/07 01:45:14;;;;;;;127.30;61.40;;;;;;;;;;5044980;28;20205;-92
2022/03/07 01:47:40;;;;;;;139.27;62.28;;;;;;;;;;5041788;28;20259;-92
2022/03/07 01:50:08;;;;;;;133.02;61.92;;;;;;;;;;5045095;28;20232;-92
2022/03/07 01:52:34;;;;;;;127.65;60.53;;;;;;;;;;5043926;28;20197;-93
2022/03/07 01:55:01;;;;;;;135.85;61.78;;;;;;;;;;5042785;28;20251;-93
2022/03/07 01:57:29;;;;;;;130.45;61.65;;;;;;;;;;5043620;28;20205;-93
2022/03/07 01:59:55;;;;;;;126.38;59.05;;;;;;;;;;5045360;28;20243;-93
2022/03/07 02:02:24;;;;;;;133.18;60.95;;;;;;;;;;5045198;28;20284;-93
2022/03/07 02:04:51;;;;;;;139.63;59.92;;;;;;;;;;5045000;28;20211;-93
2022/03/07 02:07:17;;;;;;;138.23;60.95;;;;;;;;;;5044423;28;20204;-93
2022/03/07 02:09:44;;;;;;;125.88;58.42;;;;;;;;;;5044408;28;20232;-94
2022/03/07 02:12:10;;;;;;;133.57;58.45;;;;;;;;;;5044811;28;20793;-93
2022/03/07 02:14:37;;;;;;;125.38;58.78;;;;;;;;;;5044795;28;20204;-93
2022/03/07 02:17:04;;;;;;;128.30;58.55;;;;;;;;;;5044769;28;20223;-93
2022/03/07 02:19:31;;;;;;;133.48;59.15;;;;;;;;;;5044225;28;20251;-93
2022/03/07 02:22:00;;;;;;;129.70;60.65;;;;;;;;;;5044159;28;20201;-93
2022/03/07 02:24:28;;;;;;;122.85;58.33;;;;;;;;;;5042303;28;20223;-94
2022/03/07 02:26:58;;;;;;;126.22;59.53;;;;;;;;;;5042175;28;20243;-93
2022/03/07 02:29:25;;;;;;;130.77;59.30;;;;;;;;;;5043902;28;20213;-93
2022/03/07 02:31:51;;;;;;;123.57;58.55;;;;;;;;;;5044013;28;20201;-93
2022/03/07 02:34:18;;;;;;;125.97;57.13;;;;;;;;;;5029324;28;20202;-93
2022/03/07 02:36:45;;;;;;;123.55;58.40;;;;;;;;;;5032414;28;20255;-93
2022/03/07 02:39:13;;;;;;;129.13;60.20;;;;;;;;;;5043901;28;20617;-94
2022/03/07 02:41:39;;;;;;;130.55;57.90;;;;;;;;;;5043585;28;20221;-94
2022/03/07 02:44:06;;;;;;;127.22;59.20;;;;;;;;;;5043501;28;20212;-93
2022/03/07 02:46:32;;;;;;;122.63;57.25;;;;;;;;;;5043332;28;20223;-93
2022/03/07 02:48:59;;;;;;;120.68;58.08;;;;;;;;;;5043082;28;20205;-94
2022/03/07 02:51:25;;;;;;;128.23;57.75;;;;;;;;;;5043502;28;20204;-93
2022/03/07 02:53:52;;;;;;;125.13;58.17;;;;;;;;;;5043213;28;20258;-93
2022/03/07 02:56:20;;;;;;;125.63;58.47;;;;;;;;;;5041645;28;20228;-92
2022/03/07 02:58:46;;;;;;;129.98;60.10;;;;;;;;;;5042447;28;20201;-93
2022/03/07 03:01:13;;;;;;;128.50;58.70;;;;;;;;;;5042290;28;20236;-92
2022/03/07 03:03:39;;;;;;;126.50;58.13;;;;;;;;;;5041355;28;20726;-92
2022/03/07 03:06:06;;;;;;;131.05;57.85;;;;;;;;;;5043941;28;20259;-92
2022/03/07 03:08:32;;;;;;;125.43;57.97;;;;;;;;;;5042259;28;20232;-92
2022/03/07 03:10:59;;;;;;;128.85;59.17;;;;;;;;;;5041162;28;20197;-93
2022/03/07 03:13:26;;;;;;;126.38;57.65;;;;;;;;;;5042319;28;20208;-93
2022/03/07 03:15:54;;;;;;;128.00;58.35;;;;;;;;;;5042973;28;20200;-93
2022/03/07 03:18:20;;;;;;;126.28;57.58;;;;;;;;;;5042697;28;20660;-93
2022/03/07 03:20:48;;;;;;;123.00;57.75;;;;;;;;;;5042882;28;20228;-92
2022/03/07 03:23:14;;;;;;;121.15;55.75;;;;;;;;;;5043042;28;20196;-93
2022/03/07 03:25:41;;;;;;;123.32;56.55;;;;;;;;;;5042742;28;20224;-92
2022/03/07 03:28:07;;;;;;;124.68;57.35;;;;;;;;;;5042204;28;20196;-92
2022/03/07 03:30:35;;;;;;;122.13;57.58;;;;;;;;;;5042513;28;20205;-93
2022/03/07 03:33:02;;;;;;;126.93;58.72;;;;;;;;;;5042269;28;20197;-92
2022/03/07 03:35:29;;;;;;;121.28;56.15;;;;;;;;;;5042700;28;20642;-93
2022/03/07 03:37:56;;;;;;;135.52;60.55;;;;;;;;;;5043025;28;20211;-92
2022/03/07 03:40:22;;;;;;;130.77;58.67;;;;;;;;;;5043025;28;20217;-92
2022/03/07 03:42:49;;;;;;;130.38;61.65;;;;;;;;;;5043003;28;20193;-93
2022/03/07 03:45:15;;;;;;;136.77;63.28;;;;;;;;;;5042116;28;20205;-93
2022/03/07 03:47:43;;;;;;;130.40;62.22;;;;;;;;;;5042421;28;20304;-93
2022/03/07 03:50:11;;;;;;;138.75;65.05;;;;;;;;;;5041598;28;20204;-92
2022/03/07 03:52:38;;;;;;;142.25;61.75;;;;;;;;;;5041425;28;20278;-93
2022/03/07 03:55:05;;;;;;;135.80;61.75;;;;;;;;;;5040893;28;20196;-92
2022/03/07 03:57:31;;;;;;;134.43;61.08;;;;;;;;;;5041381;28;20189;-92
2022/03/07 03:59:58;;;;;;;131.57;61.35;;;;;;;;;;5041760;28;20235;-92
2022/03/07 04:02:24;;;;;;;127.18;61.55;;;;;;;;;;5050782;28;20306;-92
2022/03/07 04:04:52;;;;;;;131.15;57.80;;;;;;;;;;5061129;28;20912;-92
2022/03/07 04:07:19;;;;;;;137.82;60.53;;;;;;;;;;5060918;28;20223;-93
2022/03/07 04:09:45;;;;;;;126.90;58.67;;;;;;;;;;5058373;28;20785;-93
2022/03/07 04:12:12;;;;;;;125.80;58.58;;;;;;;;;;5048186;28;20757;-92
2022/03/07 04:14:38;;;;;;;128.93;58.65;;;;;;;;;;5060883;28;20269;-93
2022/03/07 04:17:05;;;;;;;130.85;60.30;;;;;;;;;;5060725;28;20259;-93
2022/03/07 04:19:31;;;;;;;125.15;58.92;;;;;;;;;;5064679;28;20200;-93
2022/03/07 04:21:59;;;;;;;127.95;57.38;;;;;;;;;;5066574;28;20219;-93
2022/03/07 04:24:28;;;;;;;122.40;57.25;;;;;;;;;;5055773;28;20227;-92
2022/03/07 04:26:55;;;;;;;128.43;58.25;;;;;;;;;;5030382;28;20215;-93
2022/03/07 04:29:21;;;;;;;124.40;57.70;;;;;;;;;;5047009;28;20204;-93
2022/03/07 04:31:48;;;;;;;122.78;57.35;;;;;;;;;;5046645;28;20208;-93
2022/03/07 04:34:14;;;;;;;124.20;59.20;;;;;;;;;;5046242;28;20201;-93
2022/03/07 04:36:41;;;;;;;125.40;57.58;;;;;;;;;;5045610;28;20278;-93
2022/03/07 04:39:10;;;;;;;123.70;56.15;;;;;;;;;;5045215;28;20223;-92
2022/03/07 04:41:37;;;;;;;121.30;58.08;;;;;;;;;;5045011;28;20263;-92
2022/03/07 04:44:04;;;;;;;130.38;62.20;;;;;;;;;;5044596;28;20247;-93
2022/03/07 04:46:30;;;;;;;127.78;57.90;;;;;;;;;;5043923;28;20205;-93
2022/03/07 04:48:57;;;;;;;120.57;56.00;;;;;;;;;;5044353;28;20196;-92
2022/03/07 04:51:23;;;;;;;120.75;57.00;;;;;;;;;;5044729;28;20252;-92
2022/03/07 04:53:50;;;;;;;119.55;56.20;;;;;;;;;;5046198;28;20192;-93
2022/03/07 04:56:18;;;;;;;122.75;57.17;;;;;;;;;;5045817;28;20200;-93
2022/03/07 04:58:44;;;;;;;122.60;56.45;;;;;;;;;;5045784;28;20223;-92
2022/03/07 05:01:11;;;;;;;126.05;56.80;;;;;;;;;;5045304;28;20232;-93
2022/03/07 05:03:37;;;;;;;126.03;58.88;;;;;;;;;;5044692;28;20216;-93
2022/03/07 05:06:04;;;;;;;122.03;58.40;;;;;;;;;;5025131;28;20833;-93
2022/03/07 05:08:30;;;;;;;126.75;56.35;;;;;;;;;;5038891;28;20275;-93
2022/03/07 05:10:57;;;;;;;125.10;58.53;;;;;;;;;;5044277;28;20212;-93
2022/03/07 05:13:24;;;;;;;130.00;60.95;;;;;;;;;;5044587;28;20205;-93
2022/03/07 05:15:51;;;;;;;120.68;57.97;;;;;;;;;;5045673;28;20196;-93
2022/03/07 05:18:17;;;;;;;126.53;59.25;;;;;;;;;;5045063;28;20201;-94
2022/03/07 05:20:44;;;;;;;123.18;58.10;;;;;;;;;;5044190;28;20201;-93
2022/03/07 05:23:10;;;;;;;125.43;60.03;;;;;;;;;;5045070;28;20197;-93
2022/03/07 05:25:37;;;;;;;127.45;59.47;;;;;;;;;;5045812;28;20200;-93
2022/03/07 05:28:03;;;;;;;129.93;58.42;;;;;;;;;;5045940;28;20231;-93
2022/03/07 05:30:31;;;;;;;137.23;64.50;;;;;;;;;;5044964;28;20957;-93
2022/03/07 05:32:58;;;;;;;135.02;63.15;;;;;;;;;;5045447;28;20232;-94
2022/03/07 05:35:24;;;;;;;136.32;64.43;;;;;;;;;;5044866;28;20660;-92
2022/03/07 05:37:51;;;;;;;128.80;61.22;;;;;;;;;;5045475;28;20308;-93
2022/03/07 05:40:18;;;;;;;138.13;63.33;;;;;;;;;;5045039;28;20266;-93
2022/03/07 05:42:44;;;;;;;136.98;66.53;;;;;;;;;;5045200;28;20232;-93
2022/03/07 05:45:12;;;;;;;145.20;67.85;;;;;;;;;;5043142;28;20211;-93
2022/03/07 05:47:40;;;;;;;145.25;67.20;;;;;;;;;;5043485;28;20197;-93
2022/03/07 05:50:08;;;;;;;137.38;64.50;;;;;;;;;;5045362;28;20263;-93
2022/03/07 05:52:34;;;;;;;148.68;67.82;;;;;;;;;;5045043;28;20280;-92
2022/03/07 05:55:01;;;;;;;152.73;71.10;;;;;;;;;;5043403;28;20203;-93
2022/03/07 05:57:27;;;;;;;147.77;66.65;;;;;;;;;;5043855;28;20192;-92
2022/03/07 05:59:54;;;;;;;150.88;66.70;;;;;;;;;;5044792;28;20661;-93
2022/03/07 06:02:20;;;;;;;142.35;65.85;;;;;;;;;;5041713;28;20224;-93
2022/03/07 06:04:48;;;;;;;145.85;67.97;;;;;;;;;;5044866;28;20212;-93
2022/03/07 06:07:15;;;;;;;147.82;70.18;;;;;;;;;;5044214;28;20201;-93
2022/03/07 06:09:41;;;;;;;162.23;72.95;;;;;;;;;;5041620;28;20278;-93
2022/03/07 06:12:08;;;;;;;143.23;70.15;;;;;;;;;;5042505;28;20231;-93
2022/03/07 06:14:35;;;;;;;151.25;73.40;;;;;;;;;;5061433;28;20224;-93
2022/03/07 06:17:01;;;;;;;146.18;67.30;;;;;;;;;;5061534;28;20776;-93
2022/03/07 06:19:28;;;;;;;163.30;74.15;;;;;;;;;;5055398;28;20615;-93
2022/03/07 06:21:55;;;;;;;162.63;76.95;;;;;;;;;;5039721;28;20224;-92
2022/03/07 06:24:22;;;;;;;155.10;69.93;;;;;;;;;;5041819;28;20680;-93
2022/03/07 06:26:48;;;;;;;143.35;66.18;;;;;;;;;;5041451;28;20192;-93
2022/03/07 06:29:15;;;;;;;133.75;61.25;;;;;;;;;;5042852;28;20231;-92
2022/03/07 06:31:41;;;;;;;132.60;63.22;;;;;;;;;;5042864;28;20251;-93
2022/03/07 06:34:08;;;;;;;132.18;62.50;;;;;;;;;;5032728;28;20205;-92
2022/03/07 06:36:34;;;;;;;131.70;60.95;;;;;;;;;;5023472;28;20240;-92
2022/03/07 06:39:02;;;;;;;132.15;61.10;;;;;;;;;;5036831;28;20201;-92
2022/03/07 06:41:29;;;;;;;134.80;61.45;;;;;;;;;;5042624;28;20225;-93
2022/03/07 06:43:55;;;;;;;132.82;62.45;;;;;;;;;;5043447;28;20227;-92
2022/03/07 06:46:21;;;;;;;130.80;59.47;;;;;;;;;;5043223;28;20197;-93
2022/03/07 06:48:48;;;;;;;132.93;59.78;;;;;;;;;;5043337;28;20669;-93
2022/03/07 06:51:14;;;;;;;137.20;61.28;;;;;;;;;;5039948;28;20691;-94
2022/03/07 06:53:41;;;;;;;131.48;61.92;;;;;;;;;;5034595;28;20208;-93
2022/03/07 06:56:09;;;;;;;136.27;63.78;;;;;;;;;;5041390;28;20262;-92
2022/03/07 06:58:35;;;;;;;137.90;64.70;;;;;;;;;;5035457;28;20250;-92
2022/03/07 07:01:02;;;;;;;128.30;59.78;;;;;;;;;;5037538;28;20266;-92
2022/03/07 07:03:28;;;;;;;139.90;64.50;;;;;;;;;;5043543;28;20189;-93
2022/03/07 07:05:54;;;;;;;130.35;59.58;;;;;;;;;;5042116;28;20200;-93
2022/03/07 07:08:21;;;;;;;132.00;61.85;;;;;;;;;;5041910;28;20212;-93
2022/03/07 07:10:47;;;;;;;136.50;65.13;;;;;;;;;;5041676;28;20645;-93
2022/03/07 07:13:15;;;;;;;140.05;64.53;;;;;;;;;;5039852;28;20254;-94
2022/03/07 07:15:42;;;;;;;138.02;64.80;;;;;;;;;;5040395;28;20200;-95
2022/03/07 07:18:09;;;;;;;138.80;66.30;;;;;;;;;;5041045;28;20188;-95
2022/03/07 07:20:36;;;;;;;142.45;65.60;;;;;;;;;;5040606;28;20197;-96
2022/03/07 07:23:02;;;;;;;136.18;62.50;;;;;;;;;;5042242;28;20247;-95
2022/03/07 07:25:29;;;;;;;137.63;64.80;;;;;;;;;;5042658;28;20681;-95
2022/03/07 07:27:55;;;;;;;139.35;64.35;;;;;;;;;;5043800;28;20282;-95
2022/03/07 07:30:23;;;;;;;139.85;65.80;;;;;;;;;;5042954;28;20208;-94
2022/03/07 07:32:51;;;;;;;133.73;63.58;;;;;;;;;;5043143;28;20228;-95
2022/03/07 07:35:17;;;;;;;142.73;66.68;;;;;;;;;;5041265;28;20204;-95
2022/03/07 07:37:44;;;;;;;139.70;65.15;;;;;;;;;;5041459;28;20665;-95
2022/03/07 07:40:11;;;;;;;139.73;68.70;;;;;;;;;;5027459;28;20219;-95
2022/03/07 07:42:37;;;;;;;141.82;65.28;;;;;;;;;;5042325;28;20252;-95
2022/03/07 07:45:04;;;;;;;142.43;63.85;;;;;;;;;;5043524;28;20189;-95
2022/03/07 07:47:32;;;;;;;139.23;63.55;;;;;;;;;;5043200;28;20781;-95
2022/03/07 07:49:58;;;;;;;145.48;65.07;;;;;;;;;;5041761;28;20197;-94
2022/03/07 07:52:25;;;;;;;137.02;66.55;;;;;;;;;;5041857;28;20704;-95
2022/03/07 07:54:51;;;;;;;141.88;67.20;;;;;;;;;;5042781;28;20259;-94
2022/03/07 07:57:18;;;;;;;136.73;64.40;;;;;;;;;;5043547;28;20200;-95
2022/03/07 07:59:44;;;;;;;136.80;64.28;;;;;;;;;;5042917;28;20200;-94
2022/03/07 08:02:11;;;;;;;143.75;66.95;;;;;;;;;;5042241;28;20255;-94
2022/03/07 08:04:39;;;;;;;140.18;65.00;;;;;;;;;;5041913;28;20247;-95
2022/03/07 08:07:05;;;;;;;136.45;66.00;;;;;;;;;;5042321;28;20263;-95
2022/03/07 08:09:32;;;;;;;136.98;65.03;;;;;;;;;;5042470;28;20232;-94
2022/03/07 08:11:58;;;;;;;137.52;66.18;;;;;;;;;;5042286;28;20604;-93
2022/03/07 08:14:25;;;;;;;137.75;64.15;;;;;;;;;;5054468;28;20188;-94
2022/03/07 08:16:51;;;;;;;139.32;62.97;;;;;;;;;;5062769;28;20196;-94
2022/03/07 08:19:18;;;;;;;141.82;65.15;;;;;;;;;;5061285;28;20203;-94
2022/03/07 08:21:46;;;;;;;137.35;63.33;;;;;;;;;;5061180;28;20282;-94
2022/03/07 08:24:12;;;;;;;141.20;65.00;;;;;;;;;;5060623;28;20254;-95
2022/03/07 08:26:40;;;;;;;135.50;63.08;;;;;;;;;;5043734;28;20192;-94
2022/03/07 08:29:07;;;;;;;132.55;62.78;;;;;;;;;;5049555;28;20418;-94
2022/03/07 08:31:33;;;;;;;136.50;62.00;;;;;;;;;;5061284;28;20230;-94
2022/03/07 08:34:00;;;;;;;135.23;63.92;;;;;;;;;;5062095;28;20196;-94
2022/03/07 08:36:26;;;;;;;136.98;62.45;;;;;;;;;;5062174;28;20598;-94
2022/03/07 08:38:54;;;;;;;142.50;66.30;;;;;;;;;;5061964;28;20196;-93
2022/03/07 08:41:21;;;;;;;128.60;58.88;;;;;;;;;;5046244;28;20209;-93
2022/03/07 08:43:49;;;;;;;133.88;61.25;;;;;;;;;;5046867;28;20220;-93
2022/03/07 08:46:16;;;;;;;130.27;61.85;;;;;;;;;;5061824;28;20227;-93
2022/03/07 08:48:42;;;;;;;140.50;63.25;;;;;;;;;;5061786;28;20196;-93
2022/03/07 08:51:09;;;;;;;130.98;62.97;;;;;;;;;;5061750;28;20204;-93
2022/03/07 08:53:35;;;;;;;136.23;63.83;;;;;;;;;;5061973;28;20268;-94
2022/03/07 08:56:04;;;;;;;131.68;61.40;;;;;;;;;;5049357;28;20578;-93
2022/03/07 08:58:30;;;;;;;131.70;61.20;;;;;;;;;;5043970;28;20270;-93
2022/03/07 09:00:57;;;;;;;134.13;64.00;;;;;;;;;;5061156;28;20511;-93
2022/03/07 09:03:23;;;;;;;134.97;63.93;;;;;;;;;;5061387;28;20490;-94
2022/03/07 09:05:49;;;;;;;129.40;62.20;;;;;;;;;;5064181;28;20474;-93
2022/03/07 09:08:16;;;;;;;131.38;61.83;;;;;;;;;;5065975;28;20470;-94
2022/03/07 09:10:42;;;;;;;132.33;61.90;;;;;;;;;;5054973;28;20197;-93
2022/03/07 09:13:10;;;;;;;135.27;63.20;;;;;;;;;;5045338;28;20520;-93
2022/03/07 09:15:37;;;;;;;153.70;70.63;;;;;;;;;;5061985;28;20204;-93
2022/03/07 09:18:03;;;;;;;146.60;65.47;;;;;;;;;;5063969;28;20504;-92
2022/03/07 09:20:30;;;;;;;137.70;63.50;;;;;;;;;;5064926;28;20470;-92
2022/03/07 09:22:56;;;;;;;136.17;64.87;;;;;;;;;;5065489;28;20254;-93
2022/03/07 09:25:23;;;;;;;148.70;68.05;;;;;;;;;;5057116;28;20448;-93
2022/03/07 09:27:50;;;;;;;138.97;65.43;;;;;;;;;;5044729;28;20549;-92
2022/03/07 09:30:17;;;;;;;138.77;65.53;;;;;;;;;;5059552;28;20476;-93
2022/03/07 09:32:44;;;;;;;142.00;66.40;;;;;;;;;;5065342;28;20203;-92
2022/03/07 09:35:11;;;;;;;140.40;66.10;;;;;;;;;;5064464;28;20442;-92
2022/03/07 09:37:37;;;;;;;128.97;60.33;;;;;;;;;;5064927;28;20485;-91
2022/03/07 09:40:04;;;;;;;133.70;60.70;;;;;;;;;;5059758;28;20502;-91
2022/03/07 09:42:31;;;;;;;131.77;63.00;;;;;;;;;;5044122;28;20487;-91
2022/03/07 09:44:57;;;;;;;137.27;65.90;;;;;;;;;;5055739;28;20472;-90
2022/03/07 09:47:25;;;;;;;136.67;63.47;;;;;;;;;;5063764;28;20481;-91
2022/03/07 09:49:52;;;;;;;139.70;64.77;;;;;;;;;;5063246;28;20488;-91
2022/03/07 09:52:19;;;;;;;139.37;65.00;;;;;;;;;;5062920;28;20471;-92
2022/03/07 09:54:45;;;;;;;135.63;64.60;;;;;;;;;;5060640;28;20443;-91
2022/03/07 09:57:12;;;;;;;127.40;61.13;;;;;;;;;;5043297;28;20493;-91
2022/03/07 09:59:38;;;;;;;135.40;64.83;;;;;;;;;;5051698;28;20446;-90
2022/03/07 10:02:06;;;;;;;141.13;64.63;;;;;;;;;;5063858;28;20504;-90
2022/03/07 10:04:40;;;;;;;139.67;65.07;;;;;;;;;;5061927;28;20443;-90
2022/03/07 10:07:06;;;;;;;143.33;68.10;;;;;;;;;;5063871;28;20458;-90
2022/03/07 10:09:33;;;;;;;131.80;62.20;;;;;;;;;;5062717;28;20478;-91
2022/03/07 10:12:00;;;;;;;129.47;61.77;;;;;;;;;;5043276;28;20486;-90
2022/03/07 10:14:31;;;;;;;131.50;62.17;;;;;;;;;;5049738;28;20848;-90
2022/03/07 10:16:57;;;;;;;130.77;62.10;;;;;;;;;;5063833;28;20524;-90
2022/03/07 10:19:24;;;;;;;138.40;65.90;;;;;;;;;;5063323;28;20442;-90
2022/03/07 10:21:53;;;;;;;132.70;62.90;;;;;;;;;;5064036;28;20473;-90
2022/03/07 10:24:20;;;;;;;131.57;62.50;;;;;;;;;;5061701;28;20509;-90
2022/03/07 10:26:47;;;;;;;131.53;62.27;;;;;;;;;;5045432;28;20451;-90
2022/03/07 10:29:13;;;;;;;131.47;61.47;;;;;;;;;;5046729;28;20473;-91
2022/03/07 10:31:44;;;;;;;132.33;61.97;;;;;;;;;;5063137;28;20504;-91
2022/03/07 10:34:11;;;;;;;132.10;63.13;;;;;;;;;;5063586;28;20452;-91
2022/03/07 10:36:38;;;;;;;132.40;63.57;;;;;;;;;;5063919;28;20443;-90
2022/03/07 10:39:08;;;;;;;133.10;64.80;;;;;;;;;;5063617;28;20443;-90
2022/03/07 10:41:35;;;;;;;130.33;61.97;;;;;;;;;;5043741;28;20443;-90
2022/03/07 10:44:02;;;;;;;129.93;60.57;;;;;;;;;;5043939;28;20562;-91
2022/03/07 10:46:28;;;;;;;135.17;62.87;;;;;;;;;;5063678;28;20469;-90
2022/03/07 10:48:55;;;;;;;132.80;61.17;;;;;;;;;;5063433;28;20473;-90
2022/03/07 10:51:21;;;;;;;132.10;61.93;;;;;;;;;;5063564;28;20446;-89
2022/03/07 10:53:48;;;;;;;135.20;62.10;;;;;;;;;;5064118;28;20512;-90
2022/03/07 10:56:17;;;;;;;128.20;60.73;;;;;;;;;;5049062;28;20501;-91
2022/03/07 10:58:47;;;;;;;129.90;62.60;;;;;;;;;;5043863;28;20485;-91
2022/03/07 11:01:13;;;;;;;124.97;59.70;;;;;;;;;;5059690;28;20439;-93
2022/03/07 11:03:40;;;;;;;131.70;61.00;;;;;;;;;;5063528;28;20516;-90
2022/03/07 11:06:06;;;;;;;133.97;62.90;;;;;;;;;;5062660;28;20437;-90
2022/03/07 11:08:33;;;;;;;131.20;62.40;;;;;;;;;;5062944;28;20912;-95
2022/03/07 11:11:01;;;;;;;136.27;62.80;;;;;;;;;;5049669;28;20510;-90
2022/03/07 11:13:29;;;;;;;128.90;61.80;;;;;;;;;;5043472;28;20451;-91
2022/03/07 11:15:57;;;;;;;131.27;61.07;;;;;;;;;;5057972;28;20469;-90
2022/03/07 11:18:24;;;;;;;132.57;64.13;;;;;;;;;;5063847;28;20496;-91
2022/03/07 11:20:51;;;;;;;131.50;62.43;;;;;;;;;;5062035;28;20442;-91
2022/03/07 11:23:18;;;;;;;136.67;64.07;;;;;;;;;;5045346;28;20484;-90
2022/03/07 11:25:45;;;;;;;134.50;63.20;;;;;;;;;;5034575;28;20883;-90
2022/03/07 11:28:12;;;;;;;127.33;60.10;;;;;;;;;;5032873;28;20444;-91
2022/03/07 11:30:42;;;;;;;125.43;60.03;;;;;;;;;;5035790;28;20471;-90
2022/03/07 11:33:09;;;;;;;131.70;61.17;;;;;;;;;;5033453;28;20444;-90
2022/03/07 11:35:36;;;;;;;130.80;62.20;;;;;;;;;;5040850;28;20482;-90
2022/03/07 11:38:12;;;;;;;139.43;63.60;;;;;;;;;;5038839;28;20483;-90
2022/03/07 11:40:54;;;;;;;132.80;62.03;;;;;;;;;;5036300;28;20454;-91
2022/03/07 11:43:21;;;;;;;128.97;61.57;;;;;;;;;;5033299;28;20483;-91
2022/03/07 11:45:49;;;;;;;130.97;60.47;;;;;;;;;;5036052;28;20830;-91
2022/03/07 11:48:15;;;;;;;126.87;57.80;;;;;;;;;;5031849;28;20452;-93
2022/03/07 11:50:42;;;;;;;130.93;60.70;;;;;;;;;;5033253;28;20455;-91
2022/03/07 11:53:08;;;;;;;128.47;59.40;;;;;;;;;;5022277;28;20456;-92
2022/03/07 11:55:42;;;;;;;127.67;58.13;;;;;;;;;;5032687;28;20485;-92
2022/03/07 11:58:09;;;;;;;134.53;60.97;;;;;;;;;;5043224;28;20451;-92
2022/03/07 12:00:36;;;;;;;135.13;61.73;;;;;;;;;;5041341;28;20476;-92
2022/03/07 12:03:11;;;;;;;131.40;60.47;;;;;;;;;;5040868;28;20495;-95
2022/03/07 12:05:38;;;;;;;128.27;60.00;;;;;;;;;;5042725;28;20466;-93
2022/03/07 12:08:08;;;;;;;128.97;60.80;;;;;;;;;;5042914;28;20444;-91
2022/03/07 12:10:35;;;;;;;128.57;59.57;;;;;;;;;;5041656;28;20617;-91
2022/03/07 12:13:05;;;;;;;127.70;61.07;;;;;;;;;;5041776;28;20451;-93
2022/03/07 12:15:42;;;;;;;126.27;57.93;;;;;;;;;;5043194;28;20501;-93
2022/03/07 12:18:09;;;;;;;121.03;57.93;;;;;;;;;;5043247;28;20443;-94
2022/03/07 12:20:45;;;;;;;128.20;59.60;;;;;;;;;;5042490;28;20947;-91
2022/03/07 12:23:12;;;;;;;123.50;57.70;;;;;;;;;;5042689;28;20490;-91
2022/03/07 12:25:38;;;;;;;124.33;57.70;;;;;;;;;;5042646;28;20439;-91
2022/03/07 12:28:05;;;;;;;128.87;59.67;;;;;;;;;;5042667;28;20451;-93
2022/03/07 12:30:32;;;;;;;124.47;59.13;;;;;;;;;;5043206;28;20452;-91
2022/03/07 12:32:59;;;;;;;126.40;59.80;;;;;;;;;;5042924;28;20458;-91
2022/03/07 12:35:25;;;;;;;132.63;61.03;;;;;;;;;;5042491;28;20466;-94
2022/03/07 12:37:53;;;;;;;135.40;61.37;;;;;;;;;;5042345;28;20451;-93
2022/03/07 12:40:19;;;;;;;130.07;60.00;;;;;;;;;;5042623;28;20498;-93
2022/03/07 12:42:46;;;;;;;131.43;61.47;;;;;;;;;;5044742;28;20435;-92
2022/03/07 12:45:17;;;;;;;131.90;61.83;;;;;;;;;;5046574;28;20497;-91
2022/03/07 12:47:44;;;;;;;135.50;62.80;;;;;;;;;;5047133;28;20855;-92
2022/03/07 12:50:11;;;;;;;132.90;61.87;;;;;;;;;;5046318;28;20447;-91
2022/03/07 12:52:40;;;;;;;138.63;61.90;;;;;;;;;;5046078;28;20458;-94
2022/03/07 12:55:10;;;;;;;137.80;60.87;;;;;;;;;;5045949;28;20439;-94
2022/03/07 12:57:36;;;;;;;131.03;60.77;;;;;;;;;;5044467;28;20458;-92
2022/03/07 13:00:07;;;;;;;131.50;61.47;;;;;;;;;;5045259;28;20869;-93
2022/03/07 13:02:36;;;;;;;132.87;61.63;;;;;;;;;;5045180;28;20486;-93
2022/03/07 13:05:03;;;;;;;127.00;58.77;;;;;;;;;;5046224;28;20495;-93
2022/03/07 13:07:29;;;;;;;133.43;58.53;;;;;;;;;;5046345;28;20470;-96
2022/03/07 13:09:56;;;;;;;126.77;60.30;;;;;;;;;;5045194;28;20475;-92
2022/03/07 13:12:23;;;;;;;130.70;59.40;;;;;;;;;;5065503;28;20453;-92
2022/03/07 13:14:52;;;;;;;135.07;60.27;;;;;;;;;;5066911;28;20458;-94
2022/03/07 13:17:19;;;;;;;131.90;60.87;;;;;;;;;;5065401;28;20853;-92
2022/03/07 13:19:46;;;;;;;130.37;59.10;;;;;;;;;;5065860;28;20447;-92
2022/03/07 13:22:13;;;;;;;128.83;58.60;;;;;;;;;;5065674;28;20451;-96
2022/03/07 13:24:40;;;;;;;133.30;59.73;;;;;;;;;;5064313;28;20624;-96
2022/03/07 13:27:09;;;;;;;129.07;59.93;;;;;;;;;;5062860;28;20451;-94
2022/03/07 13:29:37;;;;;;;123.27;57.87;;;;;;;;;;5064832;28;20450;-92
2022/03/07 13:32:05;;;;;;;122.87;57.53;;;;;;;;;;5064905;28;20438;-94
2022/03/07 13:34:49;;;;;;;121.20;55.50;;;;;;;;;;5066265;28;20450;-95
2022/03/07 13:37:17;;;;;;;121.93;55.83;;;;;;;;;;5065478;28;20450;-93
2022/03/07 13:39:44;;;;;;;124.25;55.28;;;;;;;;;;5063516;28;20481;-95
2022/03/07 13:42:12;;;;;;;125.82;57.63;;;;;;;;;;5044089;28;20204;-92
2022/03/07 13:44:51;;;;;;;124.00;56.63;;;;;;;;;;5044882;28;20233;-96
2022/03/07 13:47:18;;;;;;;126.00;57.83;;;;;;;;;;5045604;28;20454;-94
2022/03/07 13:49:45;;;;;;;123.70;53.20;;;;;;;;;;5046381;28;20911;-96
2022/03/07 13:52:15;;;;;;;117.07;54.57;;;;;;;;;;5045561;28;20489;-95
2022/03/07 13:54:42;;;;;;;123.50;58.90;;;;;;;;;;5044184;28;20991;-95
2022/03/07 13:57:09;;;;;;;126.77;58.70;;;;;;;;;;5044472;28;20474;-94
2022/03/07 13:59:36;;;;;;;123.50;57.23;;;;;;;;;;5044331;28;20939;-94
2022/03/07 14:02:14;;;;;;;124.27;58.17;;;;;;;;;;5043796;28;20443;-96